createdAt,value
2023-03-24T00:01:19.023Z,11.71
2023-03-24T00:03:48.714Z,11.66
2023-03-24T00:06:18.746Z,11.64
2023-03-24T00:08:48.602Z,11.66
2023-03-24T00:11:18.618Z,11.69
2023-03-24T00:13:50.095Z,11.66
2023-03-24T00:16:19.397Z,11.67
2023-03-24T00:18:50.341Z,11.70
2023-03-24T00:21:18.376Z,11.70
2023-03-24T00:23:47.754Z,11.76
2023-03-24T00:26:18.015Z,11.76
2023-03-24T00:28:48.407Z,11.77
2023-03-24T00:31:17.882Z,11.77
2023-03-24T00:33:50.724Z,11.75
2023-03-24T00:36:21.053Z,11.76
2023-03-24T00:38:50.239Z,11.78
2023-03-24T00:41:21.340Z,11.74
2023-03-24T00:43:50.885Z,11.80
2023-03-24T00:46:28.656Z,11.75
2023-03-24T00:49:05.970Z,11.74
2023-03-24T00:51:37.426Z,11.77
2023-03-24T00:54:06.547Z,11.86
2023-03-24T00:56:37.895Z,11.83
2023-03-24T00:59:06.009Z,11.93
2023-03-24T01:01:36.608Z,12.08
2023-03-24T01:04:07.455Z,12.14
2023-03-24T01:06:38.227Z,12.21
2023-03-24T01:09:07.423Z,12.26
2023-03-24T01:11:40.181Z,12.39
2023-03-24T01:14:10.350Z,12.32
2023-03-24T01:16:38.503Z,12.19
2023-03-24T01:19:09.120Z,12.08
2023-03-24T01:21:37.940Z,11.89
2023-03-24T01:24:06.972Z,11.98
2023-03-24T01:26:35.315Z,11.91
2023-03-24T01:29:04.709Z,11.82
2023-03-24T01:31:32.681Z,11.78
2023-03-24T01:34:00.666Z,11.81
2023-03-24T01:36:28.590Z,11.74
2023-03-24T01:38:58.442Z,11.70
2023-03-24T01:41:27.970Z,11.71
2023-03-24T01:43:55.982Z,11.65
2023-03-24T01:46:26.646Z,11.65
2023-03-24T01:48:58.936Z,11.62
2023-03-24T01:51:30.823Z,11.56
2023-03-24T01:54:02.267Z,11.58
2023-03-24T01:56:34.380Z,11.57
2023-03-24T01:59:07.973Z,11.58
2023-03-24T02:01:48.064Z,11.64
2023-03-24T02:04:31.536Z,11.57
2023-03-24T02:07:11.053Z,11.51
2023-03-24T02:09:39.133Z,11.48
2023-03-24T02:12:07.736Z,11.47
2023-03-24T02:14:35.851Z,11.44
2023-03-24T02:17:23.952Z,11.36
2023-03-24T02:20:29.881Z,11.28
2023-03-24T02:23:27.429Z,11.26
2023-03-24T02:26:42.267Z,11.31
2023-03-24T02:29:39.069Z,11.33
2023-03-24T02:32:48.453Z,11.22
2023-03-24T02:35:55.890Z,11.21
2023-03-24T02:38:57.158Z,11.21
2023-03-24T02:41:32.356Z,11.21
2023-03-24T02:44:07.981Z,11.19
2023-03-24T02:46:43.516Z,11.17
2023-03-24T02:49:22.852Z,11.14
2023-03-24T02:51:54.723Z,11.13
2023-03-24T02:54:28.789Z,11.12
2023-03-24T02:57:05.562Z,11.12
2023-03-24T03:00:14.077Z,11.11
2023-03-24T03:03:07.548Z,11.04
2023-03-24T03:05:40.654Z,11.01
2023-03-24T03:08:12.002Z,11.01
2023-03-24T03:10:43.663Z,11.12
2023-03-24T03:13:19.346Z,11.08
2023-03-24T03:15:51.025Z,11.05
2023-03-24T03:18:24.092Z,11.07
2023-03-24T03:20:56.878Z,11.07
2023-03-24T03:23:30.252Z,11.07
2023-03-24T03:26:06.257Z,11.06
2023-03-24T03:28:39.427Z,11.07
2023-03-24T03:31:14.873Z,11.03
2023-03-24T03:33:49.834Z,11.01
2023-03-24T03:36:25.131Z,10.97
2023-03-24T03:38:57.770Z,11.03
2023-03-24T03:41:26.014Z,11.09
2023-03-24T03:43:55.861Z,11.01
2023-03-24T03:46:24.127Z,11.04
2023-03-24T03:48:52.256Z,11.03
2023-03-24T03:51:20.689Z,11.02
2023-03-24T03:53:58.216Z,11.02
2023-03-24T03:56:29.368Z,11.03
2023-03-24T03:59:30.054Z,11.05
2023-03-24T04:01:59.903Z,11.05
2023-03-24T04:04:59.810Z,11.08
2023-03-24T04:08:09.625Z,11.09
2023-03-24T04:11:32.366Z,11.11
2023-03-24T04:14:44.319Z,11.14
2023-03-24T04:18:03.849Z,11.15
2023-03-24T04:21:06.267Z,11.21
2023-03-24T04:23:45.911Z,11.19
2023-03-24T04:26:26.173Z,11.31
2023-03-24T04:29:06.074Z,11.22
2023-03-24T04:31:38.837Z,11.11
2023-03-24T04:34:15.633Z,11.13
2023-03-24T04:36:50.368Z,11.14
2023-03-24T04:39:28.271Z,11.13
2023-03-24T04:42:00.054Z,11.27
2023-03-24T04:44:32.955Z,11.21
2023-03-24T04:47:33.444Z,11.20
2023-03-24T04:50:14.645Z,11.18
2023-03-24T04:52:43.919Z,11.17
2023-03-24T04:55:43.366Z,11.15
2023-03-24T04:58:11.345Z,11.18
2023-03-24T05:00:39.241Z,11.16
2023-03-24T05:03:07.158Z,11.19
2023-03-24T05:05:36.646Z,11.12
2023-03-24T05:08:04.982Z,11.13
2023-03-24T05:10:32.739Z,11.09
2023-03-24T05:13:00.643Z,11.09
2023-03-24T05:15:28.876Z,11.07
2023-03-24T05:18:08.382Z,11.06
2023-03-24T05:20:37.605Z,11.09
2023-03-24T05:23:14.336Z,11.09
2023-03-24T05:25:44.714Z,11.13
2023-03-24T05:28:12.581Z,11.07
2023-03-24T05:30:40.563Z,11.05
2023-03-24T05:33:28.352Z,11.03
2023-03-24T05:35:58.320Z,11.05
2023-03-24T05:38:26.320Z,11.09
2023-03-24T05:40:57.746Z,11.15
2023-03-24T05:43:28.385Z,11.20
2023-03-24T05:46:09.071Z,11.20
2023-03-24T05:48:37.185Z,11.22
2023-03-24T05:51:13.534Z,11.27
2023-03-24T05:53:42.049Z,11.25
2023-03-24T05:56:18.762Z,11.31
2023-03-24T05:59:13.668Z,11.29
2023-03-24T06:01:56.716Z,11.38
2023-03-24T06:04:31.465Z,11.32
2023-03-24T06:07:08.942Z,11.50
2023-03-24T06:09:42.437Z,11.46
2023-03-24T06:12:12.680Z,11.43
2023-03-24T06:14:48.421Z,11.36
2023-03-24T06:17:16.469Z,11.42
2023-03-24T06:19:49.477Z,11.48
2023-03-24T06:22:36.514Z,11.64
2023-03-24T06:25:09.761Z,11.81
2023-03-24T06:27:38.248Z,11.87
2023-03-24T06:30:08.542Z,11.96
2023-03-24T06:32:36.673Z,12.05
2023-03-24T06:35:05.062Z,12.11
2023-03-24T06:37:44.774Z,12.17
2023-03-24T06:40:17.509Z,12.23
2023-03-24T06:42:53.629Z,12.37
2023-03-24T06:45:21.675Z,12.44
2023-03-24T06:47:50.391Z,12.51
2023-03-24T06:50:18.425Z,12.53
2023-03-24T06:52:47.741Z,12.56
2023-03-24T06:55:19.416Z,12.53
2023-03-24T06:57:47.330Z,12.47
2023-03-24T07:00:30.192Z,12.60
2023-03-24T07:03:09.075Z,12.50
2023-03-24T07:05:39.429Z,12.49
2023-03-24T07:08:30.105Z,12.50
2023-03-24T07:11:00.002Z,12.48
2023-03-24T07:13:27.908Z,12.56
2023-03-24T07:16:03.978Z,12.50
2023-03-24T07:18:31.937Z,12.48
2023-03-24T07:21:04.927Z,12.51
2023-03-24T07:23:35.747Z,12.39
2023-03-24T07:26:17.889Z,12.42
2023-03-24T07:28:49.069Z,12.44
2023-03-24T07:31:40.900Z,12.40
2023-03-24T07:34:12.231Z,12.47
2023-03-24T07:36:41.176Z,12.56
2023-03-24T07:39:15.148Z,12.66
2023-03-24T07:41:43.082Z,12.72
2023-03-24T07:44:24.272Z,12.87
2023-03-24T07:46:53.859Z,12.89
2023-03-24T07:49:22.455Z,12.88
2023-03-24T07:51:59.937Z,12.92
2023-03-24T07:54:45.235Z,12.87
2023-03-24T07:57:27.682Z,12.84
2023-03-24T07:59:55.730Z,12.85
2023-03-24T08:02:44.025Z,12.86
2023-03-24T08:05:45.121Z,12.95
2023-03-24T08:08:33.145Z,12.98
2023-03-24T08:11:02.346Z,13.08
2023-03-24T08:13:30.165Z,13.06
2023-03-24T08:15:58.271Z,13.08
2023-03-24T08:18:26.497Z,13.07
2023-03-24T08:20:58.129Z,13.12
2023-03-24T08:23:26.521Z,13.23
2023-03-24T08:25:54.426Z,13.34
2023-03-24T08:28:23.880Z,13.36
2023-03-24T08:30:51.898Z,13.35
2023-03-24T08:33:20.347Z,13.41
2023-03-24T08:35:48.312Z,13.49
2023-03-24T08:38:18.810Z,13.62
2023-03-24T08:40:48.933Z,13.59
2023-03-24T08:43:17.385Z,13.69
2023-03-24T08:45:47.749Z,13.75
2023-03-24T08:48:16.039Z,13.71
2023-03-24T08:50:44.572Z,13.78
2023-03-24T08:53:12.773Z,13.84
2023-03-24T08:55:43.064Z,13.78
2023-03-24T08:58:15.594Z,13.74
2023-03-24T09:00:44.851Z,13.81
2023-03-24T09:03:18.537Z,13.75
2023-03-24T09:05:47.659Z,13.82
2023-03-24T09:08:17.440Z,13.74
2023-03-24T09:10:47.185Z,13.81
2023-03-24T09:13:15.438Z,13.85
2023-03-24T09:15:47.690Z,13.84
2023-03-24T09:18:17.565Z,13.88
2023-03-24T09:20:46.294Z,13.96
2023-03-24T09:23:14.209Z,14.08
2023-03-24T09:25:42.093Z,14.03
2023-03-24T09:28:10.052Z,13.99
2023-03-24T09:30:38.288Z,14.04
2023-03-24T09:33:06.247Z,13.78
2023-03-24T09:35:35.696Z,13.76
2023-03-24T09:38:03.522Z,13.66
2023-03-24T09:40:33.726Z,13.61
2023-03-24T09:43:04.533Z,13.54
2023-03-24T09:45:37.595Z,13.55
2023-03-24T09:48:12.055Z,13.56
2023-03-24T09:50:49.375Z,13.66
2023-03-24T09:53:28.045Z,13.55
2023-03-24T09:55:56.413Z,13.55
2023-03-24T09:58:33.680Z,13.67
2023-03-24T10:01:01.628Z,13.84
2023-03-24T10:03:29.810Z,13.87
2023-03-24T10:06:06.163Z,13.93
2023-03-24T10:08:37.522Z,14.09
2023-03-24T10:11:08.513Z,14.07
2023-03-24T10:13:49.163Z,14.36
2023-03-24T10:16:24.995Z,14.48
2023-03-24T10:18:59.322Z,14.61
2023-03-24T10:21:31.608Z,14.62
2023-03-24T10:24:07.638Z,14.72
2023-03-24T10:26:46.790Z,14.54
2023-03-24T10:29:25.928Z,14.52
2023-03-24T10:31:58.656Z,14.47
2023-03-24T10:34:30.736Z,14.48
2023-03-24T10:37:02.822Z,14.32
2023-03-24T10:39:42.057Z,14.31
2023-03-24T10:42:18.669Z,14.48
2023-03-24T10:44:48.075Z,14.35
2023-03-24T10:47:18.487Z,14.74
2023-03-24T10:49:58.468Z,14.88
2023-03-24T10:52:28.207Z,14.98
2023-03-24T10:54:58.466Z,15.13
2023-03-24T10:57:28.778Z,15.36
2023-03-24T11:00:00.327Z,15.47
2023-03-24T11:02:31.552Z,15.30
2023-03-24T11:05:02.502Z,15.30
2023-03-24T11:07:36.346Z,15.34
2023-03-24T11:10:15.600Z,15.52
2023-03-24T11:12:44.768Z,15.56
2023-03-24T11:15:21.800Z,15.85
2023-03-24T11:17:56.048Z,15.84
2023-03-24T11:20:29.912Z,15.85
2023-03-24T11:23:02.055Z,15.80
2023-03-24T11:25:33.803Z,15.72
2023-03-24T11:28:03.834Z,15.63
2023-03-24T11:30:36.147Z,15.68
2023-03-24T11:33:05.287Z,15.72
2023-03-24T11:35:41.708Z,15.80
2023-03-24T11:38:18.277Z,15.91
2023-03-24T11:40:59.540Z,16.10
2023-03-24T11:43:28.842Z,15.99
2023-03-24T11:46:03.267Z,16.35
2023-03-24T11:48:39.948Z,16.30
2023-03-24T11:51:12.510Z,16.38
2023-03-24T11:53:46.024Z,16.45
2023-03-24T11:56:23.001Z,16.39
2023-03-24T11:58:57.852Z,16.33
2023-03-24T12:01:29.036Z,16.24
2023-03-24T12:04:08.629Z,16.26
2023-03-24T12:06:51.057Z,16.10
2023-03-24T12:09:32.105Z,16.05
2023-03-24T12:12:18.657Z,15.90
2023-03-24T12:15:03.020Z,15.87
2023-03-24T12:17:40.326Z,15.82
2023-03-24T12:20:20.095Z,15.91
2023-03-24T12:22:57.085Z,16.22
2023-03-24T12:25:43.227Z,16.35
2023-03-24T12:28:26.497Z,16.38
2023-03-24T12:31:08.803Z,16.35
2023-03-24T12:33:47.182Z,16.17
2023-03-24T12:36:34.731Z,16.15
2023-03-24T12:39:14.497Z,15.65
2023-03-24T12:42:07.506Z,15.51
2023-03-24T12:45:04.216Z,15.51
2023-03-24T12:47:54.460Z,15.28
2023-03-24T12:50:34.074Z,15.18
2023-03-24T12:53:18.079Z,15.02
2023-03-24T12:55:50.432Z,15.00
2023-03-24T12:58:24.828Z,15.21
2023-03-24T13:01:04.897Z,15.33
2023-03-24T13:03:41.285Z,15.17
2023-03-24T13:06:17.773Z,15.35
2023-03-24T13:08:53.386Z,15.28
2023-03-24T13:11:32.997Z,15.59
2023-03-24T13:14:07.737Z,15.74
2023-03-24T13:16:38.897Z,16.04
2023-03-24T13:19:15.644Z,16.16
2023-03-24T13:21:45.097Z,16.37
2023-03-24T13:24:15.455Z,16.32
2023-03-24T13:26:54.245Z,16.24
2023-03-24T13:29:49.375Z,16.01
2023-03-24T13:32:27.363Z,15.75
2023-03-24T13:35:00.318Z,15.65
2023-03-24T13:37:34.553Z,15.59
2023-03-24T13:40:07.707Z,15.64
2023-03-24T13:42:38.663Z,15.52
2023-03-24T13:45:09.303Z,15.50
2023-03-24T13:47:51.366Z,15.19
2023-03-24T13:50:20.698Z,15.19
2023-03-24T13:52:50.703Z,15.04
2023-03-24T13:55:24.362Z,14.85
2023-03-24T13:57:57.679Z,14.78
2023-03-24T14:00:28.254Z,14.42
2023-03-24T14:02:58.191Z,14.23
2023-03-24T14:05:35.314Z,14.37
2023-03-24T14:08:43.744Z,14.35
2023-03-24T14:11:59.293Z,14.26
2023-03-24T14:14:29.208Z,14.42
2023-03-24T14:17:14.214Z,14.71
2023-03-24T14:19:43.166Z,14.92
2023-03-24T14:22:16.477Z,15.00
2023-03-24T14:24:47.944Z,15.20
2023-03-24T14:27:34.634Z,15.39
2023-03-24T14:30:07.396Z,15.71
2023-03-24T14:32:41.854Z,15.81
2023-03-24T14:35:24.763Z,15.70
2023-03-24T14:37:56.365Z,15.32
2023-03-24T14:40:32.085Z,15.06
2023-03-24T14:43:23.704Z,14.95
2023-03-24T14:45:57.711Z,14.96
2023-03-24T14:48:34.913Z,14.75
2023-03-24T14:51:10.249Z,14.59
2023-03-24T14:53:40.306Z,14.39
2023-03-24T14:56:14.256Z,14.50
2023-03-24T14:58:44.079Z,14.25
2023-03-24T15:01:12.363Z,14.16
2023-03-24T15:03:49.652Z,14.20
2023-03-24T15:06:19.457Z,14.16
2023-03-24T15:08:52.169Z,14.13
2023-03-24T15:11:24.453Z,14.13
2023-03-24T15:13:53.371Z,14.08
2023-03-24T15:16:24.986Z,13.98
2023-03-24T15:21:30.596Z,13.76
2023-03-24T15:23:58.766Z,13.61
2023-03-24T15:26:28.355Z,13.39
2023-03-24T15:28:57.954Z,13.33
2023-03-24T15:31:30.296Z,13.22
2023-03-24T15:34:08.236Z,13.08
2023-03-24T15:36:40.821Z,12.90
2023-03-24T15:39:19.841Z,12.75
2023-03-24T15:41:51.837Z,12.67
2023-03-24T15:44:21.844Z,12.59
2023-03-24T15:46:50.308Z,12.60
2023-03-24T15:49:24.919Z,12.46
2023-03-24T15:51:57.076Z,12.38
2023-03-24T15:54:27.551Z,12.33
2023-03-24T15:57:14.896Z,12.29
2023-03-24T15:59:48.638Z,12.22
2023-03-24T16:02:33.374Z,12.21
2023-03-24T16:05:30.471Z,12.11
2023-03-24T16:08:00.775Z,12.12
2023-03-24T16:10:33.623Z,12.18
2023-03-24T16:13:14.909Z,12.24
2023-03-24T16:15:45.031Z,12.22
2023-03-24T16:18:22.388Z,12.12
2023-03-24T16:20:52.480Z,12.06
2023-03-24T16:23:20.481Z,12.01
2023-03-24T16:25:48.298Z,11.98
2023-03-24T16:28:20.302Z,11.99
2023-03-24T16:30:53.188Z,11.98
2023-03-24T16:33:24.078Z,12.04
2023-03-24T16:35:54.575Z,12.01
2023-03-24T16:38:45.354Z,12.02
2023-03-24T16:41:18.954Z,12.12
2023-03-24T16:43:46.950Z,12.15
2023-03-24T16:46:16.721Z,12.07
2023-03-24T16:48:45.051Z,11.94
2023-03-24T16:51:16.238Z,12.04
2023-03-24T16:53:45.466Z,12.01
2023-03-24T16:56:15.340Z,11.94
2023-03-24T16:58:43.127Z,11.86
2023-03-24T17:01:26.547Z,11.92
2023-03-24T17:03:55.523Z,11.96
2023-03-24T17:06:27.239Z,11.98
2023-03-24T17:08:55.164Z,11.85
2023-03-24T17:11:27.478Z,11.75
2023-03-24T17:13:57.239Z,11.85
2023-03-24T17:16:25.607Z,11.89
2023-03-24T17:18:53.588Z,11.78
2023-03-24T17:21:21.701Z,11.70
2023-03-24T17:23:54.819Z,11.70
2023-03-24T17:26:23.460Z,11.71
2023-03-24T17:28:52.435Z,11.68
2023-03-24T17:31:20.371Z,11.73
2023-03-24T17:33:48.204Z,11.74
2023-03-24T17:36:17.237Z,11.68
2023-03-24T17:38:47.269Z,11.67
2023-03-24T17:41:18.025Z,11.68
2023-03-24T17:43:46.853Z,11.57
2023-03-24T17:46:14.745Z,11.57
2023-03-24T17:48:45.293Z,11.49
2023-03-24T17:51:14.247Z,11.52
2023-03-24T17:53:45.077Z,11.41
2023-03-24T17:56:13.171Z,11.31
2023-03-24T17:58:46.967Z,11.30
2023-03-24T18:01:18.211Z,11.23
2023-03-24T18:03:50.824Z,11.22
2023-03-24T18:06:18.651Z,11.15
2023-03-24T18:08:46.387Z,11.08
2023-03-24T18:11:15.775Z,11.01
2023-03-24T18:13:45.218Z,10.98
2023-03-24T18:16:21.262Z,10.99
2023-03-24T18:18:51.175Z,10.84
2023-03-24T18:21:21.043Z,10.79
2023-03-24T18:23:49.276Z,10.76
2023-03-24T18:26:18.262Z,10.71
2023-03-24T18:28:47.851Z,10.63
2023-03-24T18:31:18.621Z,10.59
2023-03-24T18:33:46.920Z,10.48
2023-03-24T18:36:16.949Z,10.40
2023-03-24T18:38:46.648Z,10.35
2023-03-24T18:41:16.767Z,10.36
2023-03-24T18:43:47.568Z,10.32
2023-03-24T18:46:17.548Z,10.28
2023-03-24T18:48:46.611Z,10.19
2023-03-24T18:51:15.420Z,10.13
2023-03-24T18:53:43.252Z,10.17
2023-03-24T18:56:12.467Z,10.18
2023-03-24T18:58:40.766Z,10.13
2023-03-24T19:01:11.333Z,10.14
2023-03-24T19:03:42.010Z,10.11
2023-03-24T19:06:12.480Z,10.06
2023-03-24T19:08:42.341Z,10.03
2023-03-24T19:11:10.923Z,10.16
2023-03-24T19:13:39.889Z,10.10
2023-03-24T19:16:09.355Z,10.12
2023-03-24T19:18:37.932Z,10.13
2023-03-24T19:21:07.886Z,10.22
2023-03-24T19:23:36.656Z,10.16
2023-03-24T19:26:04.658Z,10.19
2023-03-24T19:28:35.549Z,10.12
2023-03-24T19:31:08.922Z,10.19
2023-03-24T19:33:37.387Z,10.18
2023-03-24T19:36:08.889Z,10.16
2023-03-24T19:38:37.696Z,10.09
2023-03-24T19:41:07.132Z,10.12
2023-03-24T19:43:37.219Z,10.12
2023-03-24T19:46:06.414Z,10.00
2023-03-24T19:48:34.762Z,10.00
2023-03-24T19:51:03.374Z,10.06
2023-03-24T19:53:32.599Z,9.97
2023-03-24T19:56:01.087Z,9.95
2023-03-24T19:58:29.018Z,9.97
2023-03-24T20:00:57.221Z,9.99
2023-03-24T20:03:25.669Z,9.99
2023-03-24T20:05:53.542Z,10.00
2023-03-24T20:08:21.618Z,10.03
2023-03-24T20:10:50.763Z,10.03
2023-03-24T20:13:19.233Z,9.99
2023-03-24T20:15:47.415Z,10.00
2023-03-24T20:18:15.482Z,9.99
2023-03-24T20:20:43.342Z,10.00
2023-03-24T20:23:11.303Z,9.94
2023-03-24T20:25:42.210Z,9.92
2023-03-24T20:28:11.550Z,9.94
2023-03-24T20:30:40.135Z,9.86
2023-03-24T20:33:08.078Z,9.83
2023-03-24T20:35:36.623Z,9.84
2023-03-24T20:38:04.543Z,9.78
2023-03-24T20:40:32.288Z,9.79
2023-03-24T20:43:00.115Z,9.85
2023-03-24T20:45:29.348Z,9.78
2023-03-24T20:47:57.257Z,9.66
2023-03-24T20:50:25.043Z,9.64
2023-03-24T20:52:52.848Z,9.62
2023-03-24T20:55:20.832Z,9.54
2023-03-24T20:57:48.600Z,9.51
2023-03-24T21:00:20.220Z,9.40
2023-03-24T21:02:49.439Z,9.43
2023-03-24T21:05:17.305Z,9.39
2023-03-24T21:07:45.824Z,9.37
2023-03-24T21:10:14.354Z,9.29
2023-03-24T21:12:54.306Z,9.29
2023-03-24T21:15:24.712Z,9.27
2023-03-24T21:17:54.892Z,9.32
2023-03-24T21:20:26.682Z,9.27
2023-03-24T21:22:55.669Z,9.21
2023-03-24T21:25:28.855Z,9.22
2023-03-24T21:27:57.852Z,9.26
2023-03-24T21:30:27.028Z,9.23
2023-03-24T21:32:57.674Z,9.20
2023-03-24T21:35:25.970Z,9.15
2023-03-24T21:37:54.421Z,9.12
2023-03-24T21:40:24.989Z,9.16
2023-03-24T21:42:54.065Z,9.10
2023-03-24T21:45:24.059Z,9.05
2023-03-24T21:47:55.244Z,9.06
2023-03-24T21:50:25.749Z,9.06
2023-03-24T21:52:55.339Z,8.95
2023-03-24T21:55:25.265Z,8.94
2023-03-24T21:57:53.154Z,8.93
2023-03-24T22:00:23.129Z,8.93
2023-03-24T22:02:52.869Z,8.88
2023-03-24T22:05:22.658Z,8.92
2023-03-24T22:07:52.671Z,8.90
2023-03-24T22:10:24.611Z,8.79
2023-03-24T22:12:53.994Z,8.77
2023-03-24T22:15:22.350Z,8.77
2023-03-24T22:17:50.675Z,8.77
2023-03-24T22:20:19.070Z,8.79
2023-03-24T22:22:47.278Z,8.74
2023-03-24T22:25:18.793Z,8.72
2023-03-24T22:27:49.918Z,8.73
2023-03-24T22:30:19.312Z,8.72
2023-03-24T22:32:47.115Z,8.68
2023-03-24T22:35:15.547Z,8.68
2023-03-24T22:37:43.424Z,8.76
2023-03-24T22:40:11.180Z,8.66
2023-03-24T22:42:40.336Z,8.73
2023-03-24T22:45:09.509Z,8.68
2023-03-24T22:47:38.402Z,8.72
2023-03-24T22:50:10.291Z,8.66
2023-03-24T22:52:38.035Z,8.71
2023-03-24T22:55:06.538Z,8.65
2023-03-24T22:57:34.363Z,8.66
2023-03-24T23:00:04.032Z,8.65
2023-03-24T23:02:32.155Z,8.59
2023-03-24T23:04:59.980Z,8.52
2023-03-24T23:07:28.791Z,8.50
2023-03-24T23:09:59.469Z,8.46
2023-03-24T23:12:27.708Z,8.49
2023-03-24T23:14:56.009Z,8.53
2023-03-24T23:17:25.475Z,8.43
2023-03-24T23:19:53.840Z,8.45
2023-03-24T23:22:22.388Z,8.46
2023-03-24T23:24:53.694Z,8.42
2023-03-24T23:27:33.584Z,8.43
2023-03-24T23:30:01.493Z,8.50
2023-03-24T23:32:33.210Z,8.57
2023-03-24T23:35:02.800Z,8.69
2023-03-24T23:37:32.157Z,8.68
2023-03-24T23:40:02.456Z,8.78
2023-03-24T23:42:33.164Z,8.79
2023-03-24T23:45:01.105Z,8.81
2023-03-24T23:47:32.538Z,8.88
2023-03-24T23:50:00.959Z,8.88
2023-03-24T23:52:28.991Z,8.97
2023-03-24T23:54:56.878Z,9.01
2023-03-24T23:57:24.867Z,9.01
2023-03-24T23:59:53.833Z,8.99
